Time;durP1;ratioP1;P1;durP2;ratioP2;P2;SDS_P1;SDS_P2;PMS_P1;PMS_P2;Temp;Humidity;BMP_temperature;BMP_pressure;BME280_temperature;BME280_humidity;BME280_pressure;Samples;Min_cycle;Max_cycle;Signal;HPM_P1;HPM_P2
2024/02/09 00:00:17;;;;;;;13.13;7.70;;;2.90;99.90;;;;;;4185229;28;20504;-76
2024/02/09 00:02:20;;;;;;;15.13;8.40;;;2.90;99.90;;;;;;4185025;28;20475;-76
2024/02/09 00:04:22;;;;;;;15.70;8.40;;;2.90;99.90;;;;;;4187690;28;20451;-77
2024/02/09 00:06:25;;;;;;;15.07;8.37;;;2.90;99.90;;;;;;4192073;28;20539;-77
2024/02/09 00:08:27;;;;;;;16.93;8.57;;;3.00;99.90;;;;;;4185508;28;20897;-78
2024/02/09 00:10:29;;;;;;;14.93;8.00;;;2.90;99.90;;;;;;4189538;28;20520;-79
2024/02/09 00:12:34;;;;;;;15.73;8.60;;;2.90;99.90;;;;;;4187430;28;20461;-78
2024/02/09 00:14:36;;;;;;;18.90;9.00;;;2.90;99.90;;;;;;4187385;28;20437;-78
2024/02/09 00:16:38;;;;;;;15.47;8.33;;;2.90;99.90;;;;;;4186218;28;20490;-78
2024/02/09 00:18:40;;;;;;;18.43;9.13;;;2.90;99.90;;;;;;4183086;28;20458;-78
2024/02/09 00:20:42;;;;;;;13.90;8.00;;;3.10;99.90;;;;;;4191603;28;20944;-78
2024/02/09 00:22:49;;;;;;;16.73;8.30;;;2.90;99.90;;;;;;4181245;28;20469;-78
2024/02/09 00:24:50;;;;;;;19.60;9.07;;;2.90;99.90;;;;;;4190105;28;20460;-79
2024/02/09 00:26:52;;;;;;;17.23;8.70;;;2.90;99.90;;;;;;4184563;28;20468;-79
2024/02/09 00:28:54;;;;;;;20.50;9.90;;;2.90;99.90;;;;;;4190597;28;20559;-79
2024/02/09 00:30:56;;;;;;;16.50;8.70;;;3.00;99.90;;;;;;4184284;28;20507;-78
2024/02/09 00:32:58;;;;;;;16.50;7.90;;;2.90;99.90;;;;;;4188165;28;20501;-78
2024/02/09 00:35:00;;;;;;;16.07;8.13;;;2.90;99.90;;;;;;4185474;28;20429;-78
2024/02/09 00:37:03;;;;;;;20.90;10.60;;;3.00;99.90;;;;;;4188294;28;20495;-78
2024/02/09 00:39:06;;;;;;;19.97;9.87;;;3.00;99.90;;;;;;4185751;28;20889;-78
2024/02/09 00:41:09;;;;;;;21.13;10.13;;;3.00;99.90;;;;;;4183510;28;20465;-78
2024/02/09 00:43:15;;;;;;;20.80;10.07;;;3.00;99.90;;;;;;4187361;28;20500;-77
2024/02/09 00:45:16;;;;;;;20.37;10.10;;;3.00;99.90;;;;;;4187472;28;20445;-77
2024/02/09 00:47:18;;;;;;;20.10;9.63;;;3.00;99.90;;;;;;4182768;28;20498;-77
2024/02/09 00:49:20;;;;;;;19.13;9.40;;;3.00;99.90;;;;;;4187672;28;20844;-77
2024/02/09 00:51:22;;;;;;;22.37;10.53;;;3.00;99.90;;;;;;4192033;28;20473;-77
2024/02/09 00:53:24;;;;;;;24.27;11.07;;;3.00;99.90;;;;;;4183890;28;20480;-78
2024/02/09 00:55:29;;;;;;;21.80;10.97;;;3.00;99.90;;;;;;4184544;28;20473;-79
2024/02/09 00:57:31;;;;;;;20.53;9.90;;;3.00;99.90;;;;;;4181941;28;20891;-78
2024/02/09 00:59:31;;;;;;;19.57;10.27;;;3.00;99.90;;;;;;4189023;28;20448;-79
2024/02/09 01:01:33;;;;;;;22.27;11.20;;;3.00;99.90;;;;;;4184572;28;20979;-79
2024/02/09 01:03:36;;;;;;;22.17;11.17;;;3.10;99.90;;;;;;4181539;28;20202;-78
2024/02/09 01:05:38;;;;;;;23.43;10.80;;;3.10;99.90;;;;;;4183739;28;20936;-78
2024/02/09 01:07:40;;;;;;;21.53;10.53;;;3.00;99.90;;;;;;4186568;28;21049;-79
2024/02/09 01:09:42;;;;;;;19.57;10.67;;;3.10;99.90;;;;;;4183575;28;20480;-80
2024/02/09 01:11:45;;;;;;;22.40;10.60;;;3.00;99.90;;;;;;4184656;28;20477;-79
2024/02/09 02:46:32;;;;;;;25.53;11.43;;;3.30;99.90;;;;;;4190964;28;20559;-79
2024/02/09 03:04:49;;;;;;;24.53;10.90;;;3.40;99.90;;;;;;4194631;28;20441;-80
2024/02/09 03:06:51;;;;;;;28.83;12.13;;;3.40;99.90;;;;;;4191576;28;20437;-78
2024/02/09 03:08:54;;;;;;;25.93;11.67;;;3.40;99.90;;;;;;4190022;28;20525;-77
2024/02/09 03:10:56;;;;;;;31.37;13.30;;;3.40;99.90;;;;;;4188091;28;20534;-79
2024/02/09 03:12:58;;;;;;;26.43;12.33;;;3.50;99.90;;;;;;4192962;28;20510;-79
2024/02/09 03:15:00;;;;;;;29.03;12.80;;;3.50;99.90;;;;;;4185613;28;20475;-79
2024/02/09 03:17:01;;;;;;;31.07;12.73;;;3.50;99.90;;;;;;4184732;28;20473;-79
2024/02/09 03:19:03;;;;;;;30.47;12.80;;;3.50;99.90;;;;;;4188425;28;21246;-78
2024/02/09 03:21:07;;;;;;;27.27;12.13;;;3.30;99.90;;;;;;4189686;28;21779;-78
2024/02/09 03:23:08;;;;;;;30.40;13.23;;;3.50;99.90;;;;;;4187972;28;20458;-78
2024/02/09 03:25:11;;;;;;;27.33;12.10;;;3.50;99.90;;;;;;4189123;28;20558;-78
2024/02/09 03:27:12;;;;;;;32.80;14.37;;;3.50;99.90;;;;;;4188013;28;20512;-78
2024/02/09 03:29:14;;;;;;;32.33;13.67;;;3.50;99.90;;;;;;4188071;28;21161;-78
2024/02/09 03:31:16;;;;;;;30.37;12.47;;;3.50;99.90;;;;;;4190166;28;20465;-78
2024/02/09 03:33:18;;;;;;;27.63;12.53;;;3.50;99.90;;;;;;4194181;28;20445;-79
2024/02/09 03:35:19;;;;;;;35.60;14.63;;;3.90;99.90;;;;;;4199353;28;20466;-79
2024/02/09 03:37:24;;;;;;;31.53;13.53;;;3.60;99.90;;;;;;4198526;28;20521;-79
2024/02/09 03:39:25;;;;;;;27.80;12.23;;;3.60;99.90;;;;;;4199139;28;20498;-80
2024/02/09 03:41:27;;;;;;;32.50;13.67;;;3.50;99.90;;;;;;4191151;28;20460;-79
2024/02/09 03:43:29;;;;;;;25.83;11.87;;;3.60;99.90;;;;;;4186270;28;20245;-80
2024/02/09 03:45:30;;;;;;;29.80;12.87;;;3.60;99.90;;;;;;4184837;28;20458;-78
2024/02/09 03:47:32;;;;;;;32.57;13.37;;;3.60;99.90;;;;;;4187482;28;20510;-78
2024/02/09 03:49:34;;;;;;;31.47;12.90;;;3.60;99.90;;;;;;4187500;28;20242;-79
2024/02/09 03:51:36;;;;;;;28.93;12.13;;;3.70;99.90;;;;;;4184517;28;20479;-78
2024/02/09 03:53:39;;;;;;;29.23;12.67;;;3.70;99.90;;;;;;4187089;28;20473;-78
2024/02/09 03:55:41;;;;;;;33.20;13.57;;;3.70;99.90;;;;;;4190658;28;20926;-79
2024/02/09 03:57:44;;;;;;;34.47;14.40;;;3.60;99.90;;;;;;4182266;28;20446;-79
2024/02/09 03:59:47;;;;;;;30.83;13.03;;;3.70;99.90;;;;;;4183245;28;20442;-78
2024/02/09 04:01:49;;;;;;;32.43;14.07;;;3.70;99.90;;;;;;4181963;28;20470;-79
2024/02/09 04:03:51;;;;;;;34.87;14.47;;;3.70;99.90;;;;;;4186604;28;20479;-79
2024/02/09 04:05:54;;;;;;;34.80;13.83;;;3.70;99.90;;;;;;4187243;28;20449;-79
2024/02/09 04:07:56;;;;;;;33.40;14.07;;;3.70;99.90;;;;;;4189058;28;20453;-79
2024/02/09 04:10:01;;;;;;;35.17;13.60;;;3.70;99.90;;;;;;4187912;28;20521;-78
2024/02/09 04:12:04;;;;;;;32.33;13.93;;;3.80;99.90;;;;;;4195104;28;20832;-79
2024/02/09 04:14:05;;;;;;;36.07;14.47;;;3.80;99.90;;;;;;4191851;28;20463;-78
2024/02/09 04:16:08;;;;;;;40.90;15.53;;;3.80;99.90;;;;;;4185634;28;20515;-78
2024/02/09 04:18:10;;;;;;;31.50;13.87;;;3.80;99.90;;;;;;4186694;28;20829;-78
2024/02/09 04:20:14;;;;;;;37.50;15.10;;;3.80;99.90;;;;;;4186245;28;20521;-78
2024/02/09 04:22:15;;;;;;;33.83;14.30;;;3.80;99.90;;;;;;4185649;28;20464;-79
2024/02/09 04:24:18;;;;;;;33.70;13.97;;;3.80;99.90;;;;;;4184945;28;21029;-79
2024/02/09 04:26:22;;;;;;;34.20;13.83;;;3.90;99.90;;;;;;4185135;28;20443;-79
2024/02/09 04:28:25;;;;;;;31.97;13.97;;;3.90;99.90;;;;;;4190443;28;20511;-78
2024/02/09 04:30:27;;;;;;;32.67;14.27;;;3.90;99.90;;;;;;4189187;28;20557;-78
2024/02/09 04:32:29;;;;;;;32.00;13.93;;;3.90;99.90;;;;;;4187539;28;20448;-78
2024/02/09 04:34:31;;;;;;;35.07;14.03;;;3.90;99.90;;;;;;4187257;28;20450;-78
2024/02/09 04:36:33;;;;;;;33.70;13.60;;;4.00;99.90;;;;;;4193254;28;20466;-78
2024/02/09 04:38:40;;;;;;;43.87;14.37;;;4.00;99.90;;;;;;4182720;28;20446;-79
2024/02/09 04:40:42;;;;;;;33.80;13.53;;;4.00;99.90;;;;;;4188510;28;20469;-79
2024/02/09 04:42:46;;;;;;;37.67;15.07;;;4.00;99.90;;;;;;4189244;28;20547;-79
2024/02/09 04:44:48;;;;;;;31.43;13.40;;;4.10;99.90;;;;;;4185528;28;20457;-79
2024/02/09 04:46:49;;;;;;;34.53;13.93;;;4.00;99.90;;;;;;4187165;28;20455;-81
2024/02/09 04:48:51;;;;;;;35.00;14.10;;;4.10;99.90;;;;;;4182558;28;20539;-79
2024/02/09 04:50:54;;;;;;;32.07;12.70;;;4.10;99.90;;;;;;4189575;28;20228;-78
2024/02/09 04:52:56;;;;;;;32.93;13.43;;;4.20;99.90;;;;;;4182715;28;20471;-78
2024/02/09 04:54:58;;;;;;;31.80;12.83;;;4.20;99.90;;;;;;4185942;28;20452;-77
2024/02/09 04:57:00;;;;;;;32.60;12.77;;;4.20;99.90;;;;;;4190530;28;20513;-77
2024/02/09 04:59:07;;;;;;;29.87;12.67;;;4.30;99.90;;;;;;4185821;28;20467;-78
2024/02/09 05:01:09;;;;;;;32.53;12.33;;;4.30;99.90;;;;;;4182391;28;20484;-78
2024/02/09 05:03:10;;;;;;;35.93;13.33;;;4.30;99.90;;;;;;4187290;28;20490;-78
2024/02/09 05:05:12;;;;;;;28.60;11.73;;;4.30;99.90;;;;;;4189565;28;20832;-78
2024/02/09 05:07:14;;;;;;;29.37;12.50;;;4.30;99.90;;;;;;4191794;28;20751;-78
2024/02/09 05:09:23;;;;;;;37.90;13.03;;;4.40;99.90;;;;;;4189801;28;20459;-78
2024/02/09 05:11:29;;;;;;;32.30;12.77;;;4.40;99.90;;;;;;4188645;28;20481;-78
2024/02/09 05:13:34;;;;;;;34.47;12.13;;;4.40;99.90;;;;;;4186981;28;20463;-78
2024/02/09 05:15:37;;;;;;;29.70;11.33;;;4.50;99.90;;;;;;4201791;28;20518;-78
2024/02/09 05:17:41;;;;;;;29.57;11.93;;;4.50;99.90;;;;;;4193510;28;20551;-78
2024/02/09 05:19:43;;;;;;;29.07;10.10;;;4.50;99.90;;;;;;4193160;28;20475;-78
2024/02/09 05:21:45;;;;;;;33.57;12.43;;;4.50;99.90;;;;;;4192707;28;20498;-78
2024/02/09 05:23:47;;;;;;;26.17;10.50;;;4.50;99.90;;;;;;4196064;28;20486;-78
2024/02/09 05:25:48;;;;;;;29.13;11.60;;;4.60;99.90;;;;;;4194449;28;20473;-77
2024/02/09 05:27:50;;;;;;;40.60;11.90;;;4.60;99.90;;;;;;4183457;28;20443;-77
2024/02/09 05:29:52;;;;;;;27.60;10.97;;;4.60;99.90;;;;;;4185122;28;20208;-77
2024/02/09 05:31:57;;;;;;;27.13;11.20;;;4.70;99.90;;;;;;4187598;28;20463;-78
2024/02/09 05:34:01;;;;;;;30.07;10.70;;;4.70;99.90;;;;;;4190612;28;20965;-77
2024/02/09 05:36:03;;;;;;;29.43;10.83;;;4.80;99.90;;;;;;4188630;28;20443;-78
2024/02/09 05:38:05;;;;;;;27.73;10.33;;;4.80;99.90;;;;;;4180873;28;20458;-78
2024/02/09 05:40:09;;;;;;;27.57;8.80;;;4.80;99.90;;;;;;4197637;28;20450;-78
2024/02/09 05:42:11;;;;;;;25.17;8.27;;;4.90;99.90;;;;;;4187755;28;20499;-78
2024/02/09 05:44:13;;;;;;;24.00;8.10;;;5.00;99.90;;;;;;4189138;28;20482;-77
2024/02/09 05:46:15;;;;;;;26.10;7.80;;;5.00;99.90;;;;;;4187264;28;20478;-76
2024/02/09 05:48:19;;;;;;;27.30;8.00;;;5.10;99.90;;;;;;4189916;28;20486;-76
2024/02/09 05:50:21;;;;;;;24.20;7.20;;;5.20;99.90;;;;;;4188214;28;21180;-77
2024/02/09 05:52:23;;;;;;;26.57;7.07;;;5.30;99.90;;;;;;4190805;28;20479;-78
2024/02/09 05:54:25;;;;;;;20.63;7.40;;;5.40;99.90;;;;;;4195983;28;20459;-80
2024/02/09 05:56:29;;;;;;;25.17;7.30;;;5.50;99.90;;;;;;4193487;28;20517;-79
2024/02/09 05:58:31;;;;;;;27.33;6.90;;;5.70;99.90;;;;;;4200186;28;20538;-82
2024/02/09 06:00:33;;;;;;;22.47;8.20;;;5.70;99.90;;;;;;4193747;28;20987;-79
2024/02/09 06:02:37;;;;;;;24.13;6.60;;;5.80;99.90;;;;;;4191931;28;20520;-78
2024/02/09 06:04:39;;;;;;;25.83;7.20;;;5.90;99.90;;;;;;4185867;28;20882;-79
2024/02/09 06:06:44;;;;;;;22.53;6.37;;;6.10;99.90;;;;;;4185776;28;21002;-78
2024/02/09 06:08:46;;;;;;;24.67;6.33;;;6.00;99.90;;;;;;4182658;28;20456;-79
2024/02/09 06:10:49;;;;;;;23.13;5.87;;;6.20;99.90;;;;;;4187817;28;20476;-78
2024/02/09 06:12:49;;;;;;;24.83;6.07;;;6.20;99.90;;;;;;4190413;28;20776;-79
2024/02/09 06:14:53;;;;;;;20.07;6.03;;;6.30;99.90;;;;;;4186966;28;20223;-79
2024/02/09 06:16:56;;;;;;;24.67;5.10;;;6.40;99.90;;;;;;4187340;28;20230;-79
2024/02/09 06:18:58;;;;;;;22.17;5.53;;;6.40;99.90;;;;;;4185725;28;20206;-79
2024/02/09 06:21:02;;;;;;;17.37;5.07;;;6.50;99.90;;;;;;4193682;28;20252;-80
2024/02/09 06:23:04;;;;;;;13.00;4.87;;;6.60;99.90;;;;;;4189984;28;20212;-79
2024/02/09 06:25:06;;;;;;;27.27;5.93;;;6.50;99.90;;;;;;4188155;28;20191;-80
2024/02/09 06:27:08;;;;;;;17.10;4.87;;;6.60;99.90;;;;;;4193107;28;20630;-79
2024/02/09 06:29:10;;;;;;;15.07;4.47;;;6.60;99.90;;;;;;4186827;28;20201;-80
2024/02/09 06:31:16;;;;;;;16.50;4.90;;;6.80;99.90;;;;;;4187623;28;20630;-79
2024/02/09 06:33:19;;;;;;;19.07;5.43;;;6.70;99.90;;;;;;4187200;28;20245;-80
2024/02/09 06:35:21;;;;;;;28.70;6.13;;;6.80;99.90;;;;;;4185897;28;20242;-80
2024/02/09 06:37:25;;;;;;;25.93;5.67;;;7.20;99.90;;;;;;4190601;28;20219;-79
2024/02/09 06:39:27;;;;;;;15.43;4.70;;;6.90;99.90;;;;;;4188592;28;20215;-79
2024/02/09 06:41:29;;;;;;;18.57;4.90;;;6.90;99.90;;;;;;4190878;28;20245;-79
2024/02/09 06:43:31;;;;;;;17.50;5.60;;;6.90;99.90;;;;;;4192284;28;20216;-80
2024/02/09 06:45:35;;;;;;;19.07;4.23;;;7.00;99.90;;;;;;4191953;28;20214;-80
2024/02/09 06:47:39;;;;;;;15.70;4.83;;;7.00;99.90;;;;;;4192714;28;20198;-79
2024/02/09 06:49:44;;;;;;;14.07;4.47;;;7.10;99.90;;;;;;4188543;28;20753;-79
2024/02/09 06:51:46;;;;;;;19.37;4.93;;;7.10;99.90;;;;;;4192254;28;20252;-80
2024/02/09 06:53:50;;;;;;;21.80;5.00;;;7.40;99.90;;;;;;4190748;28;20198;-79
2024/02/09 06:55:54;;;;;;;21.30;4.97;;;7.20;99.90;;;;;;4196507;28;20295;-80
2024/02/09 06:57:57;;;;;;;16.60;4.97;;;7.30;99.90;;;;;;4199789;28;20232;-80
2024/02/09 06:59:59;;;;;;;21.87;4.77;;;7.30;99.90;;;;;;4190017;28;20306;-79
2024/02/09 07:02:04;;;;;;;16.50;3.80;;;7.30;99.90;;;;;;4185541;28;20289;-79
2024/02/09 07:04:08;;;;;;;16.73;5.17;;;7.40;99.90;;;;;;4185188;28;20222;-79
2024/02/09 07:06:10;;;;;;;14.90;4.00;;;7.40;99.90;;;;;;4187689;28;20204;-81
2024/02/09 07:08:13;;;;;;;16.97;4.77;;;7.50;99.90;;;;;;4200266;28;20196;-84
2024/02/09 07:10:18;;;;;;;19.40;4.40;;;7.40;99.90;;;;;;4195421;28;20307;-79
2024/02/09 07:12:20;;;;;;;11.30;4.17;;;7.40;99.90;;;;;;4194965;28;20199;-81
2024/02/09 07:14:22;;;;;;;21.07;4.33;;;7.50;99.90;;;;;;4187604;28;20226;-78
2024/02/09 07:16:24;;;;;;;15.57;4.07;;;7.50;99.90;;;;;;4189773;28;20199;-80
2024/02/09 07:18:26;;;;;;;14.83;4.07;;;7.50;99.90;;;;;;4192327;28;20234;-77
2024/02/09 07:20:28;;;;;;;14.60;4.00;;;7.50;99.90;;;;;;4186638;28;20230;-76
2024/02/09 07:22:30;;;;;;;14.13;4.13;;;8.50;99.90;;;;;;4182083;28;20218;-77
2024/02/09 07:24:32;;;;;;;17.93;4.20;;;7.50;99.90;;;;;;4177552;28;20675;-76
2024/02/09 07:26:35;;;;;;;14.67;4.67;;;7.60;99.90;;;;;;4181550;28;20702;-77
2024/02/09 07:28:40;;;;;;;16.63;4.33;;;7.60;99.90;;;;;;4188975;28;20678;-76
2024/02/09 07:30:44;;;;;;;13.47;3.70;;;7.60;99.90;;;;;;4187924;28;20251;-76
2024/02/09 07:32:47;;;;;;;17.43;3.60;;;7.70;99.90;;;;;;4184244;28;20874;-77
2024/02/09 07:34:49;;;;;;;11.93;4.03;;;7.70;99.90;;;;;;4188683;28;20210;-77
2024/02/09 07:36:50;;;;;;;15.80;3.10;;;7.70;99.90;;;;;;4186670;28;20257;-77
2024/02/09 07:38:51;;;;;;;13.23;3.43;;;7.60;99.90;;;;;;4187626;28;20770;-77
2024/02/09 07:40:53;;;;;;;14.20;3.53;;;7.70;99.90;;;;;;4187553;28;20252;-77
2024/02/09 07:42:57;;;;;;;10.80;3.33;;;7.70;99.90;;;;;;4183922;28;20211;-77
2024/02/09 07:44:59;;;;;;;9.83;3.23;;;7.80;99.90;;;;;;4183789;28;20564;-76
2024/02/09 07:47:02;;;;;;;10.07;3.07;;;7.80;99.90;;;;;;4188935;28;20214;-76
2024/02/09 07:49:04;;;;;;;14.70;3.73;;;7.90;99.90;;;;;;4187123;28;20305;-76
2024/02/09 07:51:06;;;;;;;11.53;3.60;;;7.90;99.90;;;;;;4189447;28;20226;-76
2024/02/09 07:53:08;;;;;;;8.10;3.30;;;7.90;99.90;;;;;;4183265;28;20204;-77
2024/02/09 07:55:13;;;;;;;11.13;3.00;;;7.90;99.90;;;;;;4188936;28;21067;-78
2024/02/09 07:57:15;;;;;;;14.20;3.63;;;7.90;99.90;;;;;;4185914;28;20215;-75
2024/02/09 07:59:17;;;;;;;8.07;2.93;;;8.00;99.90;;;;;;4186720;28;20587;-76
2024/02/09 08:01:21;;;;;;;8.47;3.03;;;8.00;99.90;;;;;;4182490;28;20590;-76
2024/02/09 08:03:23;;;;;;;6.53;2.60;;;8.00;99.90;;;;;;4187046;28;20237;-76
2024/02/09 08:05:26;;;;;;;13.53;3.07;;;8.10;99.90;;;;;;4186110;28;20196;-78
2024/02/09 08:07:28;;;;;;;10.13;2.87;;;8.10;99.90;;;;;;4186544;28;20212;-76
2024/02/09 08:09:28;;;;;;;5.83;2.50;;;8.10;99.90;;;;;;4186025;28;20290;-76
2024/02/09 08:11:30;;;;;;;8.13;2.70;;;8.10;99.90;;;;;;4186207;28;20271;-75
2024/02/09 08:13:32;;;;;;;4.63;2.37;;;8.10;99.90;;;;;;4186758;28;20672;-76
2024/02/09 08:15:36;;;;;;;8.33;2.40;;;8.10;99.90;;;;;;4184248;28;21110;-77
2024/02/09 08:17:39;;;;;;;12.23;2.73;;;8.20;99.90;;;;;;4184967;28;20278;-75
2024/02/09 08:19:39;;;;;;;7.83;3.07;;;8.10;99.90;;;;;;4183915;28;20202;-76
2024/02/09 08:21:41;;;;;;;6.33;2.63;;;8.20;99.90;;;;;;4184824;28;20314;-77
2024/02/09 08:23:42;;;;;;;10.03;3.17;;;8.20;99.90;;;;;;4186765;28;20205;-77
2024/02/09 08:25:44;;;;;;;9.27;2.80;;;8.20;99.90;;;;;;4187186;28;20201;-76
2024/02/09 08:27:48;;;;;;;7.00;2.50;;;8.20;99.90;;;;;;4189977;28;20220;-75
2024/02/09 08:29:56;;;;;;;12.90;2.33;;;8.20;99.90;;;;;;4184201;28;20200;-76
2024/02/09 08:31:59;;;;;;;6.30;2.40;;;8.30;99.90;;;;;;4191428;28;20207;-76
2024/02/09 08:34:01;;;;;;;6.63;2.20;;;8.30;99.90;;;;;;4186112;28;20325;-76
2024/02/09 08:36:03;;;;;;;4.63;2.23;;;8.30;99.90;;;;;;4191914;28;20290;-76
2024/02/09 08:38:07;;;;;;;8.73;2.43;;;8.30;99.90;;;;;;4183898;28;20255;-76
2024/02/09 08:40:10;;;;;;;6.13;2.57;;;8.40;99.90;;;;;;4183598;28;20212;-76
2024/02/09 08:42:12;;;;;;;4.80;2.07;;;8.30;99.90;;;;;;4184066;28;20205;-75
2024/02/09 08:44:14;;;;;;;8.13;2.43;;;8.40;99.90;;;;;;4186191;28;20217;-77
2024/02/09 08:46:16;;;;;;;4.57;2.20;;;8.40;99.90;;;;;;4186105;28;20265;-76
2024/02/09 08:48:19;;;;;;;7.27;2.10;;;8.40;99.90;;;;;;4185927;28;20203;-77
2024/02/09 08:50:21;;;;;;;5.87;1.87;;;8.50;99.90;;;;;;4183240;28;20303;-76
2024/02/09 08:52:23;;;;;;;3.60;1.70;;;8.50;99.90;;;;;;4183796;28;20735;-76
2024/02/09 08:54:25;;;;;;;6.43;2.10;;;8.50;99.90;;;;;;4188571;28;20221;-77
2024/02/09 08:56:27;;;;;;;3.67;1.53;;;8.50;99.90;;;;;;4187167;28;21024;-78
2024/02/09 08:58:30;;;;;;;4.53;1.80;;;8.50;99.90;;;;;;4184151;28;20265;-76
2024/02/09 09:00:32;;;;;;;4.37;1.80;;;8.50;99.90;;;;;;4181449;28;20243;-78
2024/02/09 09:02:34;;;;;;;3.10;1.60;;;8.60;99.90;;;;;;4186508;28;20231;-77
2024/02/09 09:04:37;;;;;;;5.50;1.67;;;8.60;99.90;;;;;;4183875;28;20211;-76
2024/02/09 09:06:40;;;;;;;4.97;1.90;;;8.60;99.90;;;;;;4185016;28;20208;-76
2024/02/09 09:08:42;;;;;;;2.60;1.50;;;8.70;99.90;;;;;;4186797;28;20214;-76
2024/02/09 09:10:44;;;;;;;4.90;1.80;;;8.60;99.90;;;;;;4188770;28;20660;-76
2024/02/09 09:12:47;;;;;;;4.27;2.00;;;8.60;99.90;;;;;;4186031;28;20211;-76
2024/02/09 09:14:49;;;;;;;5.83;2.23;;;8.60;99.90;;;;;;4183444;28;20209;-77
2024/02/09 09:16:50;;;;;;;4.77;1.80;;;8.70;99.90;;;;;;4186684;28;20205;-77
2024/02/09 09:18:52;;;;;;;2.63;1.80;;;8.70;99.90;;;;;;4185843;28;20213;-76
2024/02/09 09:20:55;;;;;;;8.63;2.37;;;8.70;99.90;;;;;;4182695;28;20726;-77
2024/02/09 09:22:58;;;;;;;6.07;1.90;;;8.70;99.90;;;;;;4183241;28;20646;-76
2024/02/09 09:24:59;;;;;;;4.73;1.80;;;8.70;99.90;;;;;;4198752;28;20197;-77
2024/02/09 09:27:01;;;;;;;6.60;1.60;;;8.80;99.90;;;;;;4178753;28;20294;-78
2024/02/09 09:29:02;;;;;;;4.57;1.70;;;8.80;99.90;;;;;;4183628;28;20201;-78
2024/02/09 09:31:06;;;;;;;5.00;1.63;;;8.80;99.90;;;;;;4182743;28;20259;-77
2024/02/09 09:33:08;;;;;;;5.40;1.70;;;8.90;99.90;;;;;;4186389;28;20306;-77
2024/02/09 09:35:10;;;;;;;6.77;1.70;;;8.90;99.90;;;;;;4188365;28;20224;-76
2024/02/09 09:37:14;;;;;;;3.57;1.77;;;8.90;99.90;;;;;;4185413;28;20200;-76
2024/02/09 09:39:15;;;;;;;4.53;1.80;;;9.00;99.90;;;;;;4185749;28;20646;-76
2024/02/09 09:41:19;;;;;;;6.50;1.77;;;9.00;99.90;;;;;;4186725;28;20657;-77
2024/02/09 09:43:22;;;;;;;4.70;2.10;;;9.10;99.90;;;;;;4183218;28;20213;-76
2024/02/09 09:45:24;;;;;;;5.17;1.60;;;9.10;99.90;;;;;;4179657;28;20268;-78
2024/02/09 09:47:26;;;;;;;3.93;1.47;;;9.20;99.90;;;;;;4184359;28;20892;-77
2024/02/09 09:49:31;;;;;;;6.40;3.13;;;9.20;99.90;;;;;;4185885;28;20304;-76
2024/02/09 09:51:37;;;;;;;7.47;2.97;;;9.20;99.90;;;;;;4185015;28;20259;-78
2024/02/09 09:53:42;;;;;;;2.87;1.40;;;9.20;99.90;;;;;;4182243;28;20645;-77
2024/02/09 09:55:46;;;;;;;3.13;1.60;;;9.30;99.90;;;;;;4187585;28;20858;-77
2024/02/09 09:57:49;;;;;;;3.10;1.63;;;9.30;99.90;;;;;;4181948;28;20220;-77
2024/02/09 09:59:52;;;;;;;4.33;1.40;;;9.30;99.90;;;;;;4183292;28;20232;-76
2024/02/09 10:01:55;;;;;;;2.80;1.53;;;9.30;99.90;;;;;;4184302;28;20243;-77
2024/02/09 10:03:57;;;;;;;3.77;1.40;;;9.30;99.90;;;;;;4183321;28;20202;-77
2024/02/09 10:05:59;;;;;;;7.33;1.73;;;9.30;99.90;;;;;;4181721;28;20741;-77
2024/02/09 10:08:01;;;;;;;6.23;1.60;;;9.30;99.90;;;;;;4180115;28;20251;-81
2024/02/09 10:10:04;;;;;;;5.07;1.70;;;9.30;99.90;;;;;;4186238;28;20252;-79
2024/02/09 10:12:10;;;;;;;3.23;1.50;;;9.30;99.90;;;;;;4179569;28;20686;-79
2024/02/09 10:14:14;;;;;;;5.47;1.87;;;9.30;99.90;;;;;;4190224;28;20636;-78
2024/02/09 10:16:16;;;;;;;3.73;1.40;;;9.40;99.90;;;;;;4184742;28;20209;-78
2024/02/09 10:18:18;;;;;;;3.23;1.50;;;9.30;99.90;;;;;;4184587;28;20236;-77
2024/02/09 10:20:20;;;;;;;3.17;1.60;;;9.40;99.90;;;;;;4191275;28;20254;-78
2024/02/09 10:22:22;;;;;;;3.20;1.47;;;9.40;99.90;;;;;;4186643;28;20652;-80
2024/02/09 10:24:24;;;;;;;3.37;1.30;;;9.40;99.90;;;;;;4190156;28;20221;-78
2024/02/09 10:26:27;;;;;;;2.73;1.50;;;9.40;99.90;;;;;;4184935;28;20566;-77
2024/02/09 10:28:29;;;;;;;2.37;1.37;;;9.40;99.90;;;;;;4186624;28;20271;-78
2024/02/09 10:30:31;;;;;;;2.50;1.50;;;9.40;99.90;;;;;;4189955;28;20705;-78
2024/02/09 10:32:33;;;;;;;1.47;1.27;;;9.40;99.90;;;;;;4185195;28;20301;-77
2024/02/09 10:34:36;;;;;;;5.47;1.43;;;9.50;99.90;;;;;;4186432;28;20284;-78
2024/02/09 10:36:40;;;;;;;2.30;1.50;;;9.60;99.90;;;;;;4189916;28;20209;-77
2024/02/09 10:38:43;;;;;;;3.03;1.27;;;9.60;99.90;;;;;;4187578;28;20226;-77
2024/02/09 10:40:47;;;;;;;4.20;1.20;;;9.70;99.90;;;;;;4193076;28;20324;-78
2024/02/09 10:42:51;;;;;;;2.07;1.47;;;9.70;99.90;;;;;;4187294;28;20209;-78
2024/02/09 10:44:54;;;;;;;3.23;1.30;;;9.80;99.90;;;;;;4180290;28;20214;-79
2024/02/09 10:46:57;;;;;;;2.07;1.30;;;9.80;99.90;;;;;;4187689;28;20264;-78
2024/02/09 10:49:00;;;;;;;3.67;1.70;;;9.90;99.90;;;;;;4189285;28;20229;-77
2024/02/09 10:51:05;;;;;;;3.43;1.57;;;9.90;99.90;;;;;;4186960;28;20249;-76
2024/02/09 10:53:12;;;;;;;2.97;1.57;;;10.00;99.90;;;;;;4191185;28;20220;-77
2024/02/09 10:55:15;;;;;;;1.90;1.17;;;10.10;99.90;;;;;;4185463;28;20269;-75
2024/02/09 10:57:19;;;;;;;1.73;1.00;;;10.20;99.90;;;;;;4186779;28;20211;-76
2024/02/09 10:59:23;;;;;;;4.43;1.10;;;10.20;99.90;;;;;;4185821;28;20214;-75
2024/02/09 11:01:25;;;;;;;2.03;1.30;;;10.20;99.90;;;;;;4191164;28;20261;-75
2024/02/09 11:03:28;;;;;;;2.77;1.20;;;10.30;99.90;;;;;;4191518;28;20205;-75
2024/02/09 11:05:30;;;;;;;2.10;1.20;;;10.30;99.90;;;;;;4187795;28;20244;-76
2024/02/09 11:07:32;;;;;;;2.70;1.40;;;10.40;99.90;;;;;;4190252;28;20214;-74
2024/02/09 11:09:36;;;;;;;2.17;1.23;;;10.40;99.90;;;;;;4189380;28;20195;-76
2024/02/09 11:11:40;;;;;;;2.77;1.30;;;10.50;99.90;;;;;;4189281;28;20252;-77
2024/02/09 11:13:43;;;;;;;2.70;1.40;;;10.50;99.90;;;;;;4186242;28;20207;-74
2024/02/09 11:15:54;;;;;;;1.87;1.20;;;10.60;99.90;;;;;;4190757;28;20203;-72
2024/02/09 11:17:58;;;;;;;2.43;1.30;;;10.60;99.90;;;;;;4190907;28;20198;-74
2024/02/09 11:19:59;;;;;;;5.97;1.40;;;10.70;99.90;;;;;;4187255;28;20226;-74
2024/02/09 11:22:05;;;;;;;3.33;1.23;;;10.70;99.90;;;;;;4185754;28;20700;-74
2024/02/09 11:24:09;;;;;;;3.13;1.33;;;10.80;99.90;;;;;;4183159;28;20199;-74
2024/02/09 11:26:13;;;;;;;3.53;1.10;;;10.80;99.90;;;;;;4187983;28;20243;-73
2024/02/09 11:28:14;;;;;;;3.40;1.17;;;10.80;99.90;;;;;;4190222;28;20210;-73
2024/02/09 11:30:20;;;;;;;4.33;1.33;;;10.90;99.90;;;;;;4186898;28;20230;-75
2024/02/09 11:32:25;;;;;;;2.87;1.10;;;11.00;99.90;;;;;;4188378;28;20220;-75
2024/02/09 11:34:28;;;;;;;1.90;0.97;;;11.00;99.90;;;;;;4186166;28;20218;-75
2024/02/09 11:36:29;;;;;;;4.40;1.03;;;11.10;99.90;;;;;;4182552;28;20232;-73
2024/02/09 11:38:31;;;;;;;2.07;1.07;;;11.10;99.90;;;;;;4183805;28;20247;-75
2024/02/09 11:40:33;;;;;;;2.13;1.17;;;11.10;99.90;;;;;;4180957;28;20224;-75
2024/02/09 11:42:35;;;;;;;1.40;0.93;;;11.20;99.90;;;;;;4189039;28;20240;-75
2024/02/09 11:44:37;;;;;;;2.53;0.90;;;11.20;99.90;;;;;;4184319;28;20215;-76
2024/02/09 11:46:42;;;;;;;1.00;0.87;;;11.30;99.90;;;;;;4187902;28;20217;-76
2024/02/09 11:48:46;;;;;;;2.23;1.10;;;11.40;99.90;;;;;;4190592;28;20219;-76
2024/02/09 11:50:48;;;;;;;5.27;0.90;;;11.50;99.90;;;;;;4189271;28;20223;-76
2024/02/09 11:52:51;;;;;;;1.50;0.90;;;11.50;99.90;;;;;;4184379;28;20231;-76
2024/02/09 11:54:53;;;;;;;5.97;1.07;;;11.60;99.90;;;;;;4189520;28;20634;-76
2024/02/09 11:56:57;;;;;;;3.47;1.10;;;11.70;99.90;;;;;;4185916;28;20234;-77
2024/02/09 11:59:03;;;;;;;2.80;1.00;;;11.70;99.90;;;;;;4188412;28;20246;-76
2024/02/09 12:01:05;;;;;;;2.07;1.03;;;11.70;99.90;;;;;;4187249;28;20657;-76
2024/02/09 12:03:07;;;;;;;1.90;1.20;;;11.80;99.90;;;;;;4183999;28;20236;-76
2024/02/09 12:05:10;;;;;;;3.30;1.50;;;11.90;99.90;;;;;;4184204;28;20243;-76
2024/02/09 12:07:12;;;;;;;4.40;1.30;;;11.90;99.90;;;;;;4183144;28;20212;-76
2024/02/09 12:09:14;;;;;;;2.13;1.27;;;12.00;99.90;;;;;;4183474;28;20620;-77
2024/02/09 12:11:18;;;;;;;2.20;1.03;;;12.00;99.90;;;;;;4187224;28;20290;-77
2024/02/09 12:13:20;;;;;;;1.93;1.20;;;12.10;99.90;;;;;;4186618;28;20213;-77
2024/02/09 12:15:22;;;;;;;2.10;1.20;;;12.10;99.90;;;;;;4187406;28;20590;-77
2024/02/09 12:17:25;;;;;;;2.90;1.40;;;12.10;99.90;;;;;;4182308;28;20209;-77
2024/02/09 12:19:27;;;;;;;1.50;1.10;;;12.10;99.90;;;;;;4184309;28;20222;-77
2024/02/09 12:21:32;;;;;;;4.03;1.40;;;12.20;99.90;;;;;;4186809;28;20232;-77
2024/02/09 12:23:34;;;;;;;4.23;1.53;;;12.20;99.90;;;;;;4185840;28;20204;-77
2024/02/09 12:25:37;;;;;;;4.47;1.53;;;12.20;99.90;;;;;;4186007;28;20205;-77